createdAt,value
2023-03-20T00:00:54.329Z,0.00
2023-03-20T00:01:54.302Z,0.00
2023-03-20T00:02:54.281Z,0.00
2023-03-20T00:03:54.365Z,0.00
2023-03-20T00:04:54.394Z,0.00
2023-03-20T00:05:54.262Z,0.00
2023-03-20T00:06:54.252Z,0.00
2023-03-20T00:07:54.242Z,0.00
2023-03-20T00:08:54.214Z,0.00
2023-03-20T00:09:54.242Z,0.00
2023-03-20T00:10:54.202Z,0.00
2023-03-20T00:11:54.183Z,0.00
2023-03-20T00:12:54.174Z,0.00
2023-03-20T00:13:54.172Z,0.00
2023-03-20T00:14:54.199Z,0.00
2023-03-20T00:15:54.185Z,0.00
2023-03-20T00:16:54.135Z,0.00
2023-03-20T00:17:54.116Z,0.00
2023-03-20T00:18:54.122Z,0.00
2023-03-20T00:19:54.100Z,0.00
2023-03-20T00:20:54.073Z,0.00
2023-03-20T00:21:54.093Z,0.00
2023-03-20T00:22:54.062Z,0.00
2023-03-20T00:23:54.053Z,0.00
2023-03-20T00:24:54.034Z,0.00
2023-03-20T00:25:54.022Z,0.00
2023-03-20T00:26:54.051Z,0.00
2023-03-20T00:27:54.004Z,0.00
2023-03-20T00:28:53.981Z,0.00
2023-03-20T00:29:53.990Z,0.00
2023-03-20T00:30:53.970Z,0.00
2023-03-20T00:31:53.988Z,0.00
2023-03-20T00:32:54.020Z,0.00
2023-03-20T00:33:53.934Z,0.00
2023-03-20T00:34:53.927Z,0.00
2023-03-20T00:35:53.923Z,0.00
2023-03-20T00:36:53.918Z,0.00
2023-03-20T00:37:53.898Z,0.00
2023-03-20T00:38:53.878Z,0.00
2023-03-20T00:39:53.874Z,0.00
2023-03-20T00:40:53.858Z,0.00
2023-03-20T00:41:53.856Z,0.00
2023-03-20T00:42:53.855Z,0.00
2023-03-20T00:43:53.826Z,0.00
2023-03-20T00:44:53.828Z,0.00
2023-03-20T00:45:53.817Z,0.00
2023-03-20T00:46:53.834Z,0.00
2023-03-20T00:47:53.798Z,0.00
2023-03-20T00:48:53.792Z,0.00
2023-03-20T00:49:53.764Z,0.00
2023-03-20T00:50:53.748Z,0.00
2023-03-20T00:51:53.754Z,0.00
2023-03-20T00:52:53.738Z,0.00
2023-03-20T00:53:53.747Z,0.00
2023-03-20T00:54:53.732Z,0.00
2023-03-20T00:55:53.696Z,0.00
2023-03-20T00:56:53.676Z,0.00
2023-03-20T00:57:53.667Z,0.00
2023-03-20T00:58:53.675Z,0.00
2023-03-20T00:59:53.650Z,0.00
2023-03-20T01:00:53.674Z,0.00
2023-03-20T01:01:53.708Z,0.00
2023-03-20T01:02:53.610Z,0.00
2023-03-20T01:03:53.611Z,0.00
2023-03-20T01:04:53.603Z,0.00
2023-03-20T01:05:53.581Z,0.00
2023-03-20T01:06:53.556Z,0.00
2023-03-20T01:07:53.555Z,0.00
2023-03-20T01:08:53.535Z,0.00
2023-03-20T01:09:53.563Z,0.00
2023-03-20T01:10:53.552Z,0.00
2023-03-20T01:11:54.149Z,0.00
2023-03-20T01:12:53.495Z,0.00
2023-03-20T01:13:53.515Z,0.00
2023-03-20T01:14:53.484Z,0.00
2023-03-20T01:15:53.471Z,0.00
2023-03-20T01:16:53.646Z,0.00
2023-03-20T01:17:53.468Z,0.00
2023-03-20T01:18:53.458Z,0.00
2023-03-20T01:19:53.440Z,0.00
2023-03-20T01:20:53.392Z,0.00
2023-03-20T01:21:53.401Z,0.00
2023-03-20T01:22:53.386Z,0.00
2023-03-20T01:23:53.377Z,0.00
2023-03-20T01:24:53.360Z,0.00
2023-03-20T01:25:53.391Z,0.00
2023-03-20T01:26:53.342Z,0.00
2023-03-20T01:27:53.344Z,0.00
2023-03-20T01:28:53.340Z,0.00
2023-03-20T01:29:53.332Z,0.00
2023-03-20T01:30:53.326Z,0.00
2023-03-20T01:31:53.393Z,0.00
2023-03-20T01:32:53.287Z,0.00
2023-03-20T01:33:53.256Z,0.00
2023-03-20T01:34:53.380Z,0.00
2023-03-20T01:35:53.255Z,0.00
2023-03-20T01:36:53.256Z,0.00
2023-03-20T01:37:53.220Z,0.00
2023-03-20T01:38:53.192Z,0.00
2023-03-20T01:39:53.210Z,0.00
2023-03-20T01:40:53.185Z,0.00
2023-03-20T01:41:53.182Z,0.00
2023-03-20T01:42:53.165Z,0.00
2023-03-20T01:43:53.166Z,0.00
2023-03-20T01:44:53.385Z,0.00
2023-03-20T01:45:53.164Z,0.00
2023-03-20T01:46:53.114Z,0.00
2023-03-20T01:47:53.106Z,0.00
2023-03-20T01:48:53.087Z,0.00
2023-03-20T01:49:53.075Z,0.00
2023-03-20T01:50:53.094Z,0.00
2023-03-20T01:51:53.055Z,0.00
2023-03-20T01:52:53.059Z,0.00
2023-03-20T01:53:53.057Z,0.00
2023-03-20T01:54:53.016Z,0.00
2023-03-20T01:55:53.046Z,0.00
2023-03-20T01:56:53.009Z,0.00
2023-03-20T01:57:52.989Z,0.00
2023-03-20T01:58:52.974Z,0.00
2023-03-20T01:59:53.000Z,0.00
2023-03-20T02:00:53.038Z,0.00
2023-03-20T02:01:52.959Z,0.00
2023-03-20T02:02:52.950Z,0.00
2023-03-20T02:03:52.954Z,0.00
2023-03-20T02:04:53.011Z,0.00
2023-03-20T02:05:52.910Z,0.00
2023-03-20T02:06:52.897Z,0.00
2023-03-20T02:07:52.888Z,0.00
2023-03-20T02:08:52.868Z,0.00
2023-03-20T02:09:52.889Z,0.00
2023-03-20T02:10:52.837Z,0.00
2023-03-20T02:11:52.831Z,0.00
2023-03-20T02:12:52.836Z,0.00
2023-03-20T02:13:52.852Z,0.00
2023-03-20T02:14:52.791Z,0.00
2023-03-20T02:15:52.787Z,0.00
2023-03-20T02:16:52.820Z,0.00
2023-03-20T02:17:52.767Z,0.00
2023-03-20T02:18:52.760Z,0.00
2023-03-20T02:19:54.210Z,0.00
2023-03-20T02:20:52.738Z,0.00
2023-03-20T02:21:52.726Z,0.00
2023-03-20T02:22:52.720Z,0.00
2023-03-20T02:23:52.688Z,0.00
2023-03-20T02:24:52.707Z,0.00
2023-03-20T02:25:52.679Z,0.00
2023-03-20T02:26:52.676Z,0.00
2023-03-20T02:27:52.660Z,0.00
2023-03-20T02:28:52.657Z,0.00
2023-03-20T02:29:52.639Z,0.00
2023-03-20T02:30:52.681Z,0.00
2023-03-20T02:31:52.608Z,0.00
2023-03-20T02:32:52.637Z,0.00
2023-03-20T02:33:52.587Z,0.00
2023-03-20T02:34:52.595Z,0.00
2023-03-20T02:35:52.610Z,0.00
2023-03-20T02:36:52.567Z,0.00
2023-03-20T02:37:52.547Z,0.00
2023-03-20T02:38:52.527Z,0.00
2023-03-20T02:39:52.511Z,0.00
2023-03-20T02:40:52.534Z,0.00
2023-03-20T02:41:52.572Z,0.00
2023-03-20T02:42:52.514Z,0.00
2023-03-20T02:43:52.486Z,0.00
2023-03-20T02:44:52.467Z,0.00
2023-03-20T02:45:52.475Z,0.00
2023-03-20T02:46:52.446Z,0.00
2023-03-20T02:47:52.429Z,0.00
2023-03-20T02:48:52.440Z,0.00
2023-03-20T02:49:52.407Z,0.00
2023-03-20T02:50:52.409Z,0.00
2023-03-20T02:51:52.391Z,0.00
2023-03-20T02:52:52.380Z,0.00
2023-03-20T02:53:52.371Z,0.00
2023-03-20T02:54:52.367Z,0.00
2023-03-20T02:55:52.339Z,0.00
2023-03-20T02:56:52.373Z,0.00
2023-03-20T02:57:52.316Z,0.00
2023-03-20T02:58:52.320Z,0.00
2023-03-20T02:59:52.291Z,0.00
2023-03-20T03:00:52.311Z,0.00
2023-03-20T03:01:52.379Z,0.00
2023-03-20T03:02:52.339Z,0.00
2023-03-20T03:03:52.249Z,0.00
2023-03-20T03:04:52.240Z,0.00
2023-03-20T03:05:52.239Z,0.00
2023-03-20T03:06:52.228Z,0.00
2023-03-20T03:07:52.234Z,0.00
2023-03-20T03:08:52.232Z,0.00
2023-03-20T03:09:52.191Z,0.00
2023-03-20T03:10:52.201Z,0.00
2023-03-20T03:11:52.160Z,0.00
2023-03-20T03:12:52.193Z,0.00
2023-03-20T03:13:52.140Z,0.00
2023-03-20T03:14:52.148Z,0.00
2023-03-20T03:15:52.213Z,0.00
2023-03-20T03:16:52.110Z,0.00
2023-03-20T03:17:52.118Z,0.00
2023-03-20T03:18:52.100Z,0.00
2023-03-20T03:19:52.080Z,0.00
2023-03-20T03:20:52.059Z,0.00
2023-03-20T03:21:52.063Z,0.00
2023-03-20T03:22:52.083Z,0.00
2023-03-20T03:23:52.040Z,0.00
2023-03-20T03:24:52.040Z,0.00
2023-03-20T03:25:52.029Z,0.00
2023-03-20T03:26:52.004Z,0.00
2023-03-20T03:27:51.989Z,0.00
2023-03-20T03:28:52.013Z,0.00
2023-03-20T03:29:51.964Z,0.00
2023-03-20T03:30:52.001Z,0.00
2023-03-20T03:31:51.946Z,0.00
2023-03-20T03:32:51.951Z,0.00
2023-03-20T03:33:51.953Z,0.00
2023-03-20T03:34:51.913Z,0.00
2023-03-20T03:35:51.924Z,0.00
2023-03-20T03:36:51.905Z,0.00
2023-03-20T03:37:51.874Z,0.00
2023-03-20T03:38:51.887Z,0.00
2023-03-20T03:39:51.847Z,0.00
2023-03-20T03:40:51.839Z,0.00
2023-03-20T03:41:51.832Z,0.00
2023-03-20T03:42:51.829Z,0.00
2023-03-20T03:43:51.812Z,0.00
2023-03-20T03:44:51.803Z,0.00
2023-03-20T03:45:51.788Z,0.00
2023-03-20T03:46:51.827Z,0.00
2023-03-20T03:47:51.771Z,0.00
2023-03-20T03:48:51.783Z,0.00
2023-03-20T03:49:51.751Z,0.00
2023-03-20T03:50:51.731Z,0.00
2023-03-20T03:51:51.714Z,0.00
2023-03-20T03:52:51.725Z,0.00
2023-03-20T03:53:51.683Z,0.00
2023-03-20T03:54:51.692Z,0.00
2023-03-20T03:55:51.733Z,0.00
2023-03-20T03:56:51.674Z,0.00
2023-03-20T03:57:51.691Z,0.00
2023-03-20T03:58:51.640Z,0.00
2023-03-20T03:59:51.640Z,0.00
2023-03-20T04:00:51.621Z,0.00
2023-03-20T04:01:51.660Z,0.00
2023-03-20T04:02:51.593Z,0.00
2023-03-20T04:03:51.601Z,0.00
2023-03-20T04:04:51.671Z,0.00
2023-03-20T04:05:51.566Z,0.00
2023-03-20T04:06:51.655Z,0.00
2023-03-20T04:07:51.534Z,0.00
2023-03-20T04:08:51.543Z,0.00
2023-03-20T04:09:51.519Z,0.00
2023-03-20T04:10:51.507Z,0.00
2023-03-20T04:11:51.512Z,0.00
2023-03-20T04:12:51.511Z,0.00
2023-03-20T04:13:51.506Z,0.00
2023-03-20T04:14:51.473Z,0.00
2023-03-20T04:15:51.518Z,0.00
2023-03-20T04:16:51.453Z,0.00
2023-03-20T04:17:51.426Z,0.00
2023-03-20T04:18:51.433Z,0.00
2023-03-20T04:19:51.431Z,0.00
2023-03-20T04:20:51.441Z,0.00
2023-03-20T04:21:51.401Z,0.00
2023-03-20T04:22:51.388Z,0.00
2023-03-20T04:23:51.358Z,0.00
2023-03-20T04:24:51.344Z,0.00
2023-03-20T04:25:51.340Z,0.00
2023-03-20T04:26:51.353Z,0.00
2023-03-20T04:27:51.314Z,0.00
2023-03-20T04:28:51.324Z,0.00
2023-03-20T04:29:51.295Z,0.00
2023-03-20T04:30:51.294Z,0.00
2023-03-20T04:31:51.285Z,0.00
2023-03-20T04:32:51.324Z,0.00
2023-03-20T04:33:51.250Z,0.00
2023-03-20T04:34:51.247Z,0.00
2023-03-20T04:35:51.304Z,0.00
2023-03-20T04:36:51.218Z,0.00
2023-03-20T04:37:51.215Z,0.00
2023-03-20T04:38:51.574Z,0.00
2023-03-20T04:39:51.185Z,0.00
2023-03-20T04:40:51.199Z,0.00
2023-03-20T04:41:51.164Z,0.00
2023-03-20T04:42:51.157Z,0.00
2023-03-20T04:43:51.141Z,0.00
2023-03-20T04:44:51.144Z,0.00
2023-03-20T04:45:51.178Z,0.00
2023-03-20T04:46:51.118Z,0.00
2023-03-20T04:47:51.090Z,0.00
2023-03-20T04:48:51.123Z,0.00
2023-03-20T04:49:51.075Z,0.00
2023-03-20T04:50:51.078Z,0.00
2023-03-20T04:51:51.049Z,0.00
2023-03-20T04:52:51.048Z,0.00
2023-03-20T04:53:51.026Z,0.00
2023-03-20T04:54:51.075Z,0.00
2023-03-20T04:55:50.997Z,0.00
2023-03-20T04:56:50.998Z,0.00
2023-03-20T04:57:50.989Z,0.00
2023-03-20T04:58:51.006Z,0.00
2023-03-20T04:59:50.957Z,0.00
2023-03-20T05:00:51.058Z,0.00
2023-03-20T05:01:50.955Z,0.00
2023-03-20T05:02:50.930Z,0.00
2023-03-20T05:03:50.970Z,0.00
2023-03-20T05:04:50.932Z,0.00
2023-03-20T05:05:50.897Z,0.00
2023-03-20T05:06:50.877Z,0.00
2023-03-20T05:07:50.868Z,0.00
2023-03-20T05:08:50.857Z,0.00
2023-03-20T05:09:50.885Z,0.00
2023-03-20T05:10:50.838Z,0.00
2023-03-20T05:11:50.838Z,0.00
2023-03-20T05:12:50.835Z,0.00
2023-03-20T05:13:50.828Z,4.00
2023-03-20T05:14:50.801Z,4.00
2023-03-20T05:15:50.775Z,0.00
2023-03-20T05:16:50.919Z,0.00
2023-03-20T05:17:51.875Z,4.00
2023-03-20T05:18:50.750Z,4.00
2023-03-20T05:19:50.738Z,4.00
2023-03-20T05:20:50.710Z,4.00
2023-03-20T05:21:50.716Z,4.00
2023-03-20T05:22:50.729Z,4.00
2023-03-20T05:23:50.705Z,4.00
2023-03-20T05:24:50.678Z,8.00
2023-03-20T05:25:50.674Z,8.00
2023-03-20T05:26:50.645Z,8.00
2023-03-20T05:27:50.636Z,8.00
2023-03-20T05:28:50.631Z,12.00
2023-03-20T05:29:50.638Z,12.00
2023-03-20T05:30:50.692Z,12.00
2023-03-20T05:31:50.605Z,16.00
2023-03-20T05:32:50.653Z,16.00
2023-03-20T05:33:50.582Z,16.00
2023-03-20T05:34:50.570Z,20.00
2023-03-20T05:35:50.615Z,24.00
2023-03-20T05:36:50.537Z,28.00
2023-03-20T05:37:50.558Z,32.00
2023-03-20T05:38:50.516Z,32.00
2023-03-20T05:39:50.504Z,36.00
2023-03-20T05:40:50.496Z,36.00
2023-03-20T05:41:50.497Z,40.00
2023-03-20T05:42:50.508Z,44.00
2023-03-20T05:43:50.457Z,48.00
2023-03-20T05:44:50.444Z,52.00
2023-03-20T05:45:50.476Z,52.00
2023-03-20T05:46:50.448Z,56.00
2023-03-20T05:47:50.423Z,60.00
2023-03-20T05:48:50.420Z,64.00
2023-03-20T05:49:50.396Z,64.00
2023-03-20T05:50:50.377Z,68.00
2023-03-20T05:51:50.377Z,72.00
2023-03-20T05:52:50.368Z,72.00
2023-03-20T05:53:50.400Z,72.00
2023-03-20T05:54:50.343Z,76.00
2023-03-20T05:55:50.333Z,76.00
2023-03-20T05:56:50.342Z,80.00
2023-03-20T05:57:50.311Z,80.00
2023-03-20T05:58:50.513Z,88.00
2023-03-20T05:59:50.299Z,88.00
2023-03-20T06:00:50.280Z,88.00
2023-03-20T06:01:50.260Z,88.00
2023-03-20T06:02:50.284Z,96.00
2023-03-20T06:03:50.259Z,104.00
2023-03-20T06:04:50.241Z,112.00
2023-03-20T06:05:50.285Z,120.00
2023-03-20T06:06:50.214Z,132.00
2023-03-20T06:07:50.221Z,140.00
2023-03-20T06:08:50.211Z,148.00
2023-03-20T06:09:50.195Z,148.00
2023-03-20T06:10:50.174Z,148.00
2023-03-20T06:11:50.185Z,156.00
2023-03-20T06:12:50.168Z,156.00
2023-03-20T06:13:50.126Z,160.00
2023-03-20T06:14:50.128Z,168.00
2023-03-20T06:15:50.164Z,172.00
2023-03-20T06:16:50.091Z,180.00
2023-03-20T06:17:50.117Z,184.00
2023-03-20T06:18:50.081Z,192.00
2023-03-20T06:19:50.082Z,196.00
2023-03-20T06:20:50.069Z,196.00
2023-03-20T06:21:50.054Z,200.00
2023-03-20T06:22:50.034Z,204.00
2023-03-20T06:23:50.025Z,216.00
2023-03-20T06:24:50.001Z,220.00
2023-03-20T06:25:50.009Z,228.00
2023-03-20T06:26:49.982Z,240.00
2023-03-20T06:27:49.994Z,248.00
2023-03-20T06:28:49.966Z,252.00
2023-03-20T06:29:49.968Z,260.00
2023-03-20T06:30:49.977Z,252.00
2023-03-20T06:31:49.931Z,248.00
2023-03-20T06:32:49.960Z,252.00
2023-03-20T06:33:49.900Z,260.00
2023-03-20T06:34:49.889Z,264.00
2023-03-20T06:35:49.933Z,264.00
2023-03-20T06:36:49.883Z,264.00
2023-03-20T06:37:49.860Z,272.00
2023-03-20T06:38:49.874Z,272.00
2023-03-20T06:39:49.837Z,268.00
2023-03-20T06:40:49.823Z,276.00
2023-03-20T06:41:49.825Z,276.00
2023-03-20T06:42:49.802Z,264.00
2023-03-20T06:43:49.826Z,276.00
2023-03-20T06:44:49.772Z,284.00
2023-03-20T06:45:49.785Z,292.00
2023-03-20T06:46:49.762Z,304.00
2023-03-20T06:47:49.765Z,324.00
2023-03-20T06:48:49.728Z,344.00
2023-03-20T06:49:49.754Z,356.00
2023-03-20T06:50:49.699Z,356.00
2023-03-20T06:51:49.712Z,352.00
2023-03-20T06:52:49.688Z,352.00
2023-03-20T06:53:49.689Z,348.00
2023-03-20T06:54:49.668Z,340.00
2023-03-20T06:55:49.669Z,336.00
2023-03-20T06:56:49.635Z,328.00
2023-03-20T06:57:50.397Z,328.00
2023-03-20T06:58:49.613Z,320.00
2023-03-20T06:59:49.620Z,320.00
2023-03-20T07:00:49.604Z,316.00
2023-03-20T07:01:49.685Z,320.00
2023-03-20T07:02:49.622Z,328.00
2023-03-20T07:03:49.597Z,340.00
2023-03-20T07:04:49.580Z,344.00
2023-03-20T07:05:49.561Z,336.00
2023-03-20T07:06:49.523Z,348.00
2023-03-20T07:07:49.520Z,376.00
2023-03-20T07:08:49.504Z,424.00
2023-03-20T07:09:49.516Z,436.00
2023-03-20T07:10:49.497Z,432.00
2023-03-20T07:11:49.495Z,424.00
2023-03-20T07:12:49.474Z,440.00
2023-03-20T07:13:50.055Z,480.00
2023-03-20T07:14:49.454Z,516.00
2023-03-20T07:16:03.345Z,560.00
2023-03-20T07:16:50.575Z,624.00
2023-03-20T07:17:49.425Z,664.00
2023-03-20T07:18:49.427Z,660.00
2023-03-20T07:19:49.397Z,652.00
2023-03-20T07:20:49.377Z,652.00
2023-03-20T07:21:49.387Z,660.00
2023-03-20T07:22:49.355Z,656.00
2023-03-20T07:23:49.349Z,680.00
2023-03-20T07:24:49.340Z,664.00
2023-03-20T07:25:49.324Z,668.00
2023-03-20T07:26:49.339Z,708.00
2023-03-20T07:27:49.296Z,716.00
2023-03-20T07:28:49.296Z,728.00
2023-03-20T07:29:49.276Z,752.00
2023-03-20T07:30:49.256Z,804.00
2023-03-20T07:31:49.303Z,860.00
2023-03-20T07:32:49.315Z,888.00
2023-03-20T07:33:49.249Z,920.00
2023-03-20T07:34:49.230Z,896.00
2023-03-20T07:35:49.227Z,972.00
2023-03-20T07:36:49.199Z,1020.00
2023-03-20T07:37:49.195Z,1048.00
2023-03-20T07:38:49.186Z,1048.00
2023-03-20T07:39:49.173Z,1056.00
2023-03-20T07:40:49.151Z,1064.00
2023-03-20T07:41:49.135Z,1040.00
2023-03-20T07:42:49.192Z,1040.00
2023-03-20T07:43:49.127Z,1036.00
2023-03-20T07:44:49.107Z,1020.00
2023-03-20T07:45:49.116Z,1004.00
2023-03-20T07:46:49.085Z,1008.00
2023-03-20T07:47:49.140Z,1000.00
2023-03-20T07:48:49.083Z,1000.00
2023-03-20T07:49:49.054Z,980.00
2023-03-20T07:50:49.031Z,964.00
2023-03-20T07:51:49.035Z,980.00
2023-03-20T07:52:49.023Z,956.00
2023-03-20T07:53:49.006Z,960.00
2023-03-20T07:54:49.028Z,972.00
2023-03-20T07:55:48.971Z,956.00
2023-03-20T07:56:48.982Z,932.00
2023-03-20T07:57:48.965Z,924.00
2023-03-20T07:58:48.969Z,936.00
2023-03-20T07:59:48.958Z,936.00
2023-03-20T08:00:48.931Z,892.00
2023-03-20T08:01:48.936Z,856.00
2023-03-20T08:02:49.024Z,864.00
2023-03-20T08:03:49.134Z,932.00
2023-03-20T08:04:49.178Z,924.00
2023-03-20T08:05:48.864Z,908.00
2023-03-20T08:06:48.858Z,928.00
2023-03-20T08:07:48.869Z,988.00
2023-03-20T08:08:48.836Z,1004.00
2023-03-20T08:09:48.824Z,1044.00
2023-03-20T08:10:48.810Z,1040.00
2023-03-20T08:11:48.839Z,1020.00
2023-03-20T08:12:48.804Z,1036.00
2023-03-20T08:13:48.773Z,996.00
2023-03-20T08:14:48.766Z,1048.00
2023-03-20T08:15:48.801Z,1108.00
2023-03-20T08:16:56.297Z,1080.00
2023-03-20T08:17:49.754Z,1048.00
2023-03-20T08:18:48.734Z,1104.00
2023-03-20T08:19:48.737Z,1152.00
2023-03-20T08:20:48.727Z,1108.00
2023-03-20T08:21:48.696Z,1072.00
2023-03-20T08:22:48.687Z,1124.00
2023-03-20T08:23:48.667Z,1084.00
2023-03-20T08:24:48.662Z,1168.00
2023-03-20T08:25:48.664Z,1176.00
2023-03-20T08:26:48.652Z,1196.00
2023-03-20T08:27:48.636Z,1196.00
2023-03-20T08:28:49.482Z,1260.00
2023-03-20T08:29:48.874Z,1288.00
2023-03-20T08:30:48.642Z,1292.00
2023-03-20T08:31:48.600Z,1268.00
2023-03-20T08:32:48.639Z,1332.00
2023-03-20T08:33:48.610Z,1396.00
2023-03-20T08:34:48.542Z,1388.00
2023-03-20T08:35:48.869Z,1384.00
2023-03-20T08:36:48.520Z,1344.00
2023-03-20T08:37:48.521Z,1296.00
2023-03-20T08:38:48.517Z,1284.00
2023-03-20T08:39:48.533Z,1352.00
2023-03-20T08:40:48.488Z,1360.00
2023-03-20T08:41:48.493Z,1376.00
2023-03-20T08:42:48.458Z,1468.00
2023-03-20T08:43:48.456Z,1508.00
2023-03-20T08:44:48.474Z,1492.00
2023-03-20T08:45:48.451Z,1460.00
2023-03-20T08:46:48.425Z,1532.00
2023-03-20T08:47:48.419Z,1492.00
2023-03-20T08:48:48.392Z,1440.00
2023-03-20T08:49:48.394Z,1372.00
2023-03-20T08:50:48.369Z,1432.00
2023-03-20T08:51:48.370Z,1588.00
2023-03-20T08:52:48.349Z,1608.00
2023-03-20T08:53:48.346Z,1596.00
2023-03-20T08:54:48.318Z,1532.00
2023-03-20T08:55:48.424Z,1580.00
2023-03-20T08:56:48.322Z,1580.00
2023-03-20T08:57:48.285Z,1504.00
2023-03-20T08:58:48.281Z,1568.00
2023-03-20T08:59:48.266Z,1556.00
2023-03-20T09:00:48.266Z,1436.00
2023-03-20T09:01:50.316Z,1472.00
2023-03-20T09:02:48.272Z,1788.00
2023-03-20T09:03:48.229Z,1772.00
2023-03-20T09:04:48.211Z,1696.00
2023-03-20T09:05:48.217Z,1736.00
2023-03-20T09:06:48.196Z,1768.00
2023-03-20T09:07:48.189Z,1704.00
2023-03-20T09:08:48.185Z,1724.00
2023-03-20T09:09:48.157Z,1656.00
2023-03-20T09:10:48.155Z,1564.00
2023-03-20T09:11:48.134Z,1452.00
2023-03-20T09:12:48.144Z,1396.00
2023-03-20T09:13:48.129Z,1444.00
2023-03-20T09:14:48.096Z,1532.00
2023-03-20T09:15:48.107Z,1548.00
2023-03-20T09:16:48.127Z,1608.00
2023-03-20T09:17:48.141Z,1620.00
2023-03-20T09:18:48.059Z,1548.00
2023-03-20T09:19:48.047Z,1472.00
2023-03-20T09:20:48.024Z,1500.00
2023-03-20T09:21:48.028Z,1352.00
2023-03-20T09:22:48.041Z,1484.00
2023-03-20T09:23:48.007Z,1608.00
2023-03-20T09:24:48.067Z,1728.00
2023-03-20T09:25:47.976Z,1708.00
2023-03-20T09:26:47.971Z,1564.00
2023-03-20T09:27:47.966Z,1424.00
2023-03-20T09:28:47.950Z,1216.00
2023-03-20T09:29:47.938Z,1200.00
2023-03-20T09:30:47.984Z,1476.00
2023-03-20T09:31:47.920Z,1560.00
2023-03-20T09:32:47.941Z,1552.00
2023-03-20T09:33:47.894Z,1416.00
2023-03-20T09:34:47.886Z,1444.00
2023-03-20T09:35:47.876Z,1420.00
2023-03-20T09:36:47.911Z,1500.00
2023-03-20T09:37:47.870Z,1412.00
2023-03-20T09:38:47.827Z,1500.00
2023-03-20T09:39:47.825Z,1480.00
2023-03-20T09:40:47.809Z,1724.00
2023-03-20T09:41:56.698Z,1824.00
2023-03-20T09:42:48.805Z,1908.00
2023-03-20T09:43:47.790Z,1996.00
2023-03-20T09:44:47.770Z,1976.00
2023-03-20T09:45:47.762Z,1792.00
2023-03-20T09:46:47.895Z,1632.00
2023-03-20T09:47:47.734Z,1740.00
2023-03-20T09:48:47.720Z,1848.00
2023-03-20T09:49:47.715Z,1792.00
2023-03-20T09:50:47.704Z,1952.00
2023-03-20T09:51:47.679Z,2144.00
2023-03-20T09:52:47.682Z,2036.00
2023-03-20T09:53:47.678Z,1948.00
2023-03-20T09:54:54.335Z,1872.00
2023-03-20T09:55:48.672Z,1768.00
2023-03-20T09:56:47.704Z,1740.00
2023-03-20T09:57:47.618Z,1836.00
2023-03-20T09:58:47.621Z,1680.00
2023-03-20T09:59:47.590Z,1480.00
2023-03-20T10:00:47.613Z,1540.00
2023-03-20T10:01:47.596Z,1588.00
2023-03-20T10:02:47.596Z,1832.00
2023-03-20T10:03:47.542Z,1704.00
2023-03-20T10:04:47.595Z,1512.00
2023-03-20T10:05:47.528Z,1432.00
2023-03-20T10:06:47.599Z,1536.00
2023-03-20T10:07:47.522Z,1540.00
2023-03-20T10:08:47.511Z,1380.00
2023-03-20T10:09:47.497Z,1456.00
2023-03-20T10:10:47.499Z,1584.00
2023-03-20T10:11:47.480Z,1664.00
2023-03-20T10:12:47.457Z,1752.00
2023-03-20T10:13:47.450Z,1860.00
2023-03-20T10:14:47.437Z,1868.00
2023-03-20T10:15:47.418Z,1764.00
2023-03-20T10:16:47.502Z,1772.00
2023-03-20T10:17:47.402Z,1708.00
2023-03-20T10:18:47.432Z,1616.00
2023-03-20T10:19:47.386Z,1620.00
2023-03-20T10:20:50.307Z,1744.00
2023-03-20T10:21:47.372Z,1784.00
2023-03-20T10:22:47.339Z,1716.00
2023-03-20T10:23:47.330Z,1748.00
2023-03-20T10:24:47.322Z,1740.00
2023-03-20T10:25:47.348Z,1684.00
2023-03-20T10:26:47.297Z,1632.00
2023-03-20T10:27:47.293Z,1628.00
2023-03-20T10:28:47.270Z,1664.00
2023-03-20T10:29:47.270Z,1736.00
2023-03-20T10:30:47.263Z,1576.00
2023-03-20T10:31:47.272Z,1476.00
2023-03-20T10:32:47.304Z,1356.00
2023-03-20T10:33:47.228Z,1276.00
2023-03-20T10:34:47.206Z,1360.00
2023-03-20T10:35:47.212Z,1488.00
2023-03-20T10:36:47.206Z,1604.00
2023-03-20T10:37:47.242Z,1656.00
2023-03-20T10:38:47.185Z,1588.00
2023-03-20T10:39:47.170Z,1460.00
2023-03-20T10:40:47.170Z,1460.00
2023-03-20T10:41:47.124Z,1416.00
2023-03-20T10:42:47.122Z,1420.00
2023-03-20T10:43:47.098Z,1560.00
2023-03-20T10:44:47.096Z,1688.00
2023-03-20T10:45:47.090Z,1752.00
2023-03-20T10:46:47.292Z,1784.00
2023-03-20T10:47:47.119Z,1860.00
2023-03-20T10:48:47.060Z,1928.00
2023-03-20T10:49:47.043Z,1860.00
2023-03-20T10:50:47.037Z,1836.00
2023-03-20T10:51:47.014Z,1844.00
2023-03-20T10:52:47.038Z,1840.00
2023-03-20T10:53:46.990Z,1860.00
2023-03-20T10:54:47.015Z,1852.00
2023-03-20T10:55:46.962Z,1808.00
2023-03-20T10:56:46.965Z,1840.00
2023-03-20T10:57:46.939Z,1952.00
2023-03-20T10:58:46.938Z,2080.00
2023-03-20T10:59:46.927Z,2188.00
2023-03-20T11:00:47.010Z,2168.00
2023-03-20T11:01:46.904Z,2224.00
2023-03-20T11:02:46.920Z,2272.00
2023-03-20T11:03:46.909Z,2408.00
2023-03-20T11:04:46.872Z,2432.00
2023-03-20T11:05:55.603Z,2592.00
2023-03-20T11:06:47.846Z,2716.00
2023-03-20T11:07:46.829Z,2688.00
2023-03-20T11:08:46.846Z,2568.00
2023-03-20T11:09:46.814Z,2472.00
2023-03-20T11:10:46.870Z,2444.00
2023-03-20T11:11:46.786Z,2248.00
2023-03-20T11:12:46.777Z,2356.00
2023-03-20T11:13:46.767Z,2412.00
2023-03-20T11:14:46.777Z,2380.00
2023-03-20T11:15:46.986Z,2380.00
2023-03-20T11:16:46.778Z,2444.00
2023-03-20T11:17:46.748Z,2432.00
2023-03-20T11:18:46.728Z,2360.00
2023-03-20T11:19:46.699Z,2264.00
2023-03-20T11:20:46.722Z,2244.00
2023-03-20T11:21:46.704Z,2268.00
2023-03-20T11:22:46.684Z,2332.00
2023-03-20T11:23:46.656Z,2352.00
2023-03-20T11:24:46.653Z,2332.00
2023-03-20T11:25:46.628Z,2300.00
2023-03-20T11:26:46.640Z,2272.00
2023-03-20T11:27:46.613Z,2268.00
2023-03-20T11:28:46.615Z,2292.00
2023-03-20T11:29:46.616Z,2344.00
2023-03-20T11:31:03.543Z,2404.00
2023-03-20T11:31:47.606Z,2472.00
2023-03-20T11:32:46.658Z,2456.00
2023-03-20T11:33:46.552Z,2472.00
2023-03-20T11:34:46.549Z,2452.00
2023-03-20T11:35:46.538Z,2392.00
2023-03-20T11:36:49.004Z,2256.00
2023-03-20T11:37:47.499Z,2052.00
2023-03-20T11:38:46.505Z,1912.00
2023-03-20T11:39:46.466Z,1952.00
2023-03-20T11:40:46.479Z,2084.00
2023-03-20T11:41:46.465Z,2136.00
2023-03-20T11:42:46.457Z,2108.00
2023-03-20T11:43:46.428Z,2064.00
2023-03-20T11:44:46.429Z,2116.00
2023-03-20T11:45:46.451Z,2140.00
2023-03-20T11:46:46.430Z,2184.00
2023-03-20T11:47:46.400Z,2156.00
2023-03-20T11:48:46.386Z,2052.00
2023-03-20T11:49:46.357Z,1888.00
2023-03-20T11:50:46.399Z,1788.00
2023-03-20T11:51:46.331Z,1812.00
2023-03-20T11:52:46.334Z,1812.00
2023-03-20T11:53:48.029Z,1684.00
2023-03-20T11:54:46.334Z,1568.00
2023-03-20T11:55:46.295Z,1504.00
2023-03-20T11:56:46.302Z,1492.00
2023-03-20T11:57:47.499Z,1640.00
2023-03-20T11:58:46.276Z,1732.00
2023-03-20T11:59:46.266Z,1732.00
2023-03-20T12:00:46.237Z,1720.00
2023-03-20T12:01:46.242Z,1728.00
2023-03-20T12:02:46.312Z,1696.00
2023-03-20T12:03:46.240Z,1656.00
2023-03-20T12:04:46.216Z,1644.00
2023-03-20T12:05:46.207Z,1660.00
2023-03-20T12:06:46.191Z,1652.00
2023-03-20T12:07:46.161Z,1576.00
2023-03-20T12:08:46.160Z,1504.00
2023-03-20T12:09:46.159Z,1504.00
2023-03-20T12:10:46.118Z,1540.00
2023-03-20T12:11:46.122Z,1588.00
2023-03-20T12:12:46.110Z,1688.00
2023-03-20T12:13:46.088Z,1692.00
2023-03-20T12:14:46.106Z,1676.00
2023-03-20T12:15:46.172Z,1692.00
2023-03-20T12:16:46.084Z,1664.00
2023-03-20T12:17:46.042Z,1556.00
2023-03-20T12:18:46.053Z,1476.00
2023-03-20T12:19:46.048Z,1396.00
2023-03-20T12:20:46.045Z,1372.00
2023-03-20T12:21:48.252Z,1496.00
2023-03-20T12:22:46.012Z,1600.00
2023-03-20T12:23:45.997Z,1616.00
2023-03-20T12:24:45.985Z,1624.00
2023-03-20T12:25:45.952Z,1664.00
2023-03-20T12:26:45.958Z,1680.00
2023-03-20T12:27:45.980Z,1632.00
2023-03-20T12:28:45.932Z,1588.00
2023-03-20T12:29:45.936Z,1536.00
2023-03-20T12:30:46.017Z,1520.00
2023-03-20T12:31:45.915Z,1488.00
2023-03-20T12:32:45.982Z,1496.00
2023-03-20T12:33:45.899Z,1472.00
2023-03-20T12:34:45.869Z,1628.00
2023-03-20T12:35:45.873Z,1680.00
2023-03-20T12:36:45.885Z,1656.00
2023-03-20T12:37:45.826Z,1660.00
2023-03-20T12:38:45.825Z,1652.00
2023-03-20T12:39:45.809Z,1640.00
2023-03-20T12:40:45.806Z,1664.00
2023-03-20T12:41:45.782Z,1648.00